Nearby METAR Reports

 

KSJC - San Jose, California, USA
Distance from station: NE 14km
Updated: 12/06/2024 23:53
Clear
Clear
 Wind from S
Wind: S 24 km/h
Temperature: 17°C
Dew Point: 11°C
Humidity: 68%
Barometer: 1012.5 hPa
Clouds: Clear
Visibility: 16 km
2024/06/13 06:53 KSJC 130653Z 17013KT 10SM CLR 17/11 A2990 RMK AO2 SLP124 T01720111
KNUQ - Moffett Nas/Mtn, California, USA
Distance from station: N 14km
Updated: 12/06/2024 23:55
Clear
Clear
 Wind from SSE
Wind: SSE 11 km/h
Temperature: 17°C
Dew Point: 11°C
Humidity: 68%
Barometer: 1012.2 hPa
Clouds: Clear
Visibility: 16 km
2024/06/13 06:55 KNUQ 130655Z AUTO 15006KT 10SM CLR 17/11 A2989 RMK AO2
 
KPAO - Palo Alto, California, USA
Distance from station: NNW 23km
Updated: 12/06/2024 20:47
NOT Current
Haze, Clear
Haze, Clear
 Wind from N
Wind: N 13 km/h
Temperature: 18°C
Dew Point: 14°C
Humidity: 78%
Barometer: 1011.9 hPa
Summary: Haze
Clouds: Clear
Visibility: 16 km
2024/06/13 03:47 KPAO 130347Z 01007KT 10SM HZ SKC 18/14 A2988 RMK LAST
KRHV - San Jose/Reid, California, USA
Distance from station: ENE 19km
Updated: 12/06/2024 21:55
NOT Current
Clear
Clear
 Wind from SSE
Wind: SSE 22 km/h
Temperature: 18°C
Dew Point: 12°C
Humidity: 68%
Barometer: 1012.2 hPa
Clouds: Clear
Visibility: 16 km
2024/06/13 04:55 KRHV 130455Z 16012KT 10SM SKC 18/12 A2989 RMK LAST
 
KOAK - Oakland, California, USA
Distance from station: NNW 50km
Updated: 12/06/2024 23:53
Few Clouds
Few Clouds
 Wind from N
Wind: N 7 km/h
Temperature: 13°C
Dew Point: 11°C
Humidity: 88%
Barometer: 1012.9 hPa
Clouds: Few Clouds
Visibility: 16 km
Cloud details: Few Clouds 3048 m
2024/06/13 06:53 KOAK 130653Z 01004KT 10SM FEW100 13/11 A2991 RMK AO2 SLP126 T01330111
KSQL - San Carlos Airpo, California, USA
Distance from station: NW 34km
Updated: 12/06/2024 23:55
Clear
Clear
 Wind from NW
Wind: NW 6 km/h
Temperature: 14°C
Dew Point: 10°C
Humidity: 77%
Barometer: 1012.9 hPa
Clouds: Clear
Visibility: 11 km
2024/06/13 06:55 KSQL 130655Z AUTO 32003KT 7SM CLR 14/10 A2991 RMK AO2
 
KSFO - San Francisco, California, USA
Distance from station: NW 49km
Updated: 12/06/2024 23:56
Few Clouds
Few Clouds
 Wind from SSW
Wind: SSW 17 km/h
Temperature: 14°C
Dew Point: 11°C
Humidity: 82%
Barometer: 1012.5 hPa
Clouds: Few Clouds
Visibility: 16 km
Cloud details: Few Clouds 152 m
2024/06/13 06:56 KSFO 130656Z 20009KT 10SM FEW005 14/11 A2990 RMK AO2 SLP124 T01390106
KE16 - San Martin, California, USA
Distance from station: ESE 43km
Updated: 12/06/2024 23:55
Partly cloudy
Partly cloudy
 Wind from ESE
Wind: ESE 13 km/h
Temperature: 13°C
Dew Point: 11°C
Humidity: 88%
Barometer: 1014.6 hPa
Clouds: Partly cloudy
Visibility: 16 km
Cloud details: Partly cloudy 488 m
2024/06/13 06:55 KE16 130655Z AUTO 12007KT 10SM SCT016 13/11 A2996 RMK AO2
 
KWVI - Watsonville, California, USA
Distance from station: SSE 44km
Updated: 13/06/2024 00:06
Overcast
Overcast
 Wind from WSW
Wind: WSW 9 km/h
Temperature: 13°C
Dew Point: 12°C
Humidity: 94%
Barometer: 1014.6 hPa
Clouds: Overcast
Visibility: 16 km
Cloud details: Overcast 274 m
2024/06/13 07:06 KWVI 130706Z AUTO 24005KT 10SM OVC009 13/12 A2996 RMK AO2 T01280117
KHAF - Half Moon Bay, California, USA
Distance from station: WNW 50km
Updated: 12/06/2024 23:55
Mist, Overcast
Mist, Overcast
 Wind from S
Wind: S 20 km/h
Temperature: 12°C
Dew Point: 11°C
Humidity: 94%
Barometer: 1014.2 hPa
Summary: Mist
Clouds: Overcast
Visibility: 8 km
Cloud details: Overcast 244 m
2024/06/13 06:55 KHAF 130655Z AUTO 17011KT 5SM BR OVC008 12/11 A2995 RMK AO2
 
KHWD - Hayward, California, USA
Distance from station: N 44km
Updated: 12/06/2024 23:54
Clear
Clear
 Wind from varies
Wind: varies 7 km/h
Temperature: 16°C
Dew Point: 11°C
Humidity: 72%
Barometer: 1012.5 hPa
Clouds: Clear
Visibility: 16 km
2024/06/13 06:54 KHWD 130654Z AUTO VRB04KT 10SM CLR 16/11 A2990 RMK AO2 SLP133 T01560111
KLVK - Livermore, California, USA
Distance from station: NNE 51km
Updated: 12/06/2024 23:53
Clear
Clear
 Wind from NW
Wind: NW 13 km/h
Temperature: 16°C
Dew Point: 11°C
Humidity: 72%
Barometer: 1011.5 hPa
Clouds: Clear
Visibility: 16 km
2024/06/13 06:53 KLVK 130653Z AUTO 32007KT 10SM CLR 16/11 A2987 RMK AO2 SLP111 T01560106